Time;durP1;ratioP1;P1;durP2;ratioP2;P2;SDS_P1;SDS_P2;PMS_P1;PMS_P2;Temp;Humidity;BMP_temperature;BMP_pressure;BME280_temperature;BME280_humidity;BME280_pressure;Samples;Min_cycle;Max_cycle;Signal;HPM_P1;HPM_P2
2021/03/13 00:01:08;;;;;;;4.03;2.40;;;1.80;99.90;;;;;;5017445;28;20376;-84
2021/03/13 00:03:34;;;;;;;3.45;3.10;;;1.70;99.90;;;;;;5017373;28;20045;-84
2021/03/13 00:06:00;;;;;;;4.45;3.22;;;1.70;99.90;;;;;;5016765;28;20409;-85
2021/03/13 00:08:25;;;;;;;4.20;3.15;;;1.60;99.90;;;;;;5017180;28;20109;-84
2021/03/13 00:10:51;;;;;;;6.25;3.17;;;1.70;99.90;;;;;;5018359;28;20449;-82
2021/03/13 00:13:17;;;;;;;3.85;2.88;;;1.60;99.90;;;;;;5017112;28;20048;-84
2021/03/13 00:15:44;;;;;;;4.13;2.60;;;1.60;99.90;;;;;;5016717;28;20033;-84
2021/03/13 00:18:10;;;;;;;6.32;3.00;;;1.60;99.90;;;;;;5016553;28;20030;-85
2021/03/13 00:20:38;;;;;;;23.92;4.90;;;1.50;99.90;;;;;;5017133;28;20022;-84
2021/03/13 00:23:05;;;;;;;55.17;6.03;;;1.50;99.90;;;;;;5016839;28;20037;-83
2021/03/13 00:25:32;;;;;;;70.53;7.30;;;1.50;99.90;;;;;;5016581;28;20072;-83
2021/03/13 00:27:58;;;;;;;99.20;7.80;;;1.50;99.90;;;;;;5016469;28;20029;-84
2021/03/13 00:30:30;;;;;;;21.75;5.43;;;1.50;99.90;;;;;;5016069;28;20026;-85
2021/03/13 00:32:58;;;;;;;54.00;6.28;;;1.50;99.90;;;;;;5016792;28;20022;-84
2021/03/13 00:35:25;;;;;;;29.75;5.93;;;1.50;99.90;;;;;;5016675;28;20026;-84
2021/03/13 00:37:51;;;;;;;20.67;5.90;;;1.50;99.90;;;;;;5016281;28;20038;-83
2021/03/13 00:40:19;;;;;;;31.08;5.60;;;1.50;99.90;;;;;;5016470;28;20436;-84
2021/03/13 00:42:45;;;;;;;32.65;6.07;;;1.40;99.90;;;;;;5017516;28;20053;-84
2021/03/13 00:45:13;;;;;;;42.35;6.32;;;1.70;99.90;;;;;;5016178;28;20026;-84
2021/03/13 00:47:39;;;;;;;36.08;5.88;;;1.50;99.90;;;;;;5016269;28;20029;-85
2021/03/13 00:50:06;;;;;;;61.63;6.97;;;1.60;99.90;;;;;;5016341;28;20029;-83
2021/03/13 00:52:33;;;;;;;39.05;7.60;;;1.40;99.90;;;;;;5016219;28;20029;-83
2021/03/13 00:54:58;;;;;;;32.03;6.90;;;1.40;99.90;;;;;;5016046;28;20054;-82
2021/03/13 00:57:25;;;;;;;55.92;7.82;;;1.40;99.90;;;;;;5016411;28;20037;-85
2021/03/13 00:59:50;;;;;;;50.35;6.70;;;1.40;99.90;;;;;;5016430;28;20095;-84
2021/03/13 01:02:16;;;;;;;42.70;6.30;;;1.40;99.90;;;;;;5016310;28;20030;-85
2021/03/13 01:04:42;;;;;;;38.30;6.60;;;1.40;99.90;;;;;;5016170;28;20076;-83
2021/03/13 01:07:08;;;;;;;32.88;5.28;;;1.50;99.90;;;;;;5016210;28;20085;-83
2021/03/13 01:09:35;;;;;;;32.38;5.45;;;1.50;99.90;;;;;;5016258;28;20032;-84
2021/03/13 01:12:00;;;;;;;30.48;5.20;;;1.40;99.90;;;;;;5016346;28;20022;-83
2021/03/13 01:14:26;;;;;;;32.75;5.55;;;1.40;99.90;;;;;;5017247;28;20033;-83
2021/03/13 01:16:52;;;;;;;37.50;6.47;;;1.40;99.90;;;;;;5016291;28;20038;-84
2021/03/13 01:19:18;;;;;;;41.10;6.85;;;1.30;99.90;;;;;;5015762;28;20384;-83
2021/03/13 01:21:43;;;;;;;29.73;5.93;;;1.30;99.90;;;;;;5015909;28;20065;-83
2021/03/13 01:24:09;;;;;;;49.15;6.13;;;1.40;99.90;;;;;;5015962;28;20054;-83
2021/03/13 01:26:35;;;;;;;45.20;6.72;;;1.30;99.90;;;;;;5015826;28;20041;-85
2021/03/13 01:29:01;;;;;;;73.05;6.82;;;1.40;99.90;;;;;;5015888;28;20056;-84
2021/03/13 01:31:26;;;;;;;61.25;6.85;;;1.40;99.90;;;;;;5015579;28;20026;-82
2021/03/13 01:33:52;;;;;;;79.20;7.00;;;1.50;99.90;;;;;;5015895;28;20053;-84
2021/03/13 01:36:17;;;;;;;65.15;6.75;;;1.50;99.90;;;;;;5015618;28;20080;-85
2021/03/13 01:38:43;;;;;;;91.20;6.97;;;1.50;99.90;;;;;;5015595;28;20058;-83
2021/03/13 01:41:09;;;;;;;95.13;8.30;;;1.40;99.90;;;;;;5016065;28;20029;-84
2021/03/13 01:43:34;;;;;;;66.95;6.18;;;1.30;99.90;;;;;;5015356;28;20033;-84
2021/03/13 01:46:00;;;;;;;53.85;5.05;;;1.30;99.90;;;;;;5015378;28;20025;-83
2021/03/13 01:48:43;;;;;;;60.13;5.47;;;1.30;99.90;;;;;;5015959;28;20353;-83
2021/03/13 01:51:09;;;;;;;30.73;4.93;;;1.30;99.90;;;;;;5016362;28;20072;-84
2021/03/13 01:53:35;;;;;;;11.15;4.30;;;1.20;99.90;;;;;;5015229;28;20033;-84
2021/03/13 01:56:01;;;;;;;6.20;4.32;;;1.20;99.90;;;;;;5015177;28;20522;-84
2021/03/13 01:58:27;;;;;;;6.88;4.35;;;1.10;99.90;;;;;;5015299;28;20377;-83
2021/03/13 02:00:53;;;;;;;10.60;4.35;;;1.10;99.90;;;;;;5015320;28;20026;-84
2021/03/13 02:03:19;;;;;;;9.80;4.18;;;1.10;99.90;;;;;;5014711;28;20037;-83
2021/03/13 02:05:46;;;;;;;13.30;5.20;;;1.10;99.90;;;;;;5014980;28;20022;-84
2021/03/13 02:08:17;;;;;;;11.20;4.75;;;1.00;99.90;;;;;;5015206;28;20120;-84
2021/03/13 02:10:54;;;;;;;4.95;3.47;;;1.00;99.90;;;;;;5015223;28;20401;-84
2021/03/13 02:13:27;;;;;;;5.53;3.40;;;1.00;99.90;;;;;;5015094;28;20028;-84
2021/03/13 02:16:02;;;;;;;4.22;3.22;;;0.90;99.90;;;;;;5015166;28;20473;-82
2021/03/13 02:18:33;;;;;;;7.43;4.97;;;0.80;99.90;;;;;;5014893;28;20388;-84
2021/03/13 02:21:15;;;;;;;24.30;5.57;;;0.80;99.90;;;;;;5014462;28;20271;-83
2021/03/13 02:24:08;;;;;;;26.80;5.18;;;0.70;99.90;;;;;;5015110;28;20038;-83
2021/03/13 02:26:49;;;;;;;19.70;5.30;;;0.80;99.90;;;;;;5015196;28;20025;-83
2021/03/13 02:29:14;;;;;;;19.63;4.93;;;0.70;99.90;;;;;;5014630;28;20408;-85
2021/03/13 02:31:44;;;;;;;12.10;4.80;;;0.70;99.90;;;;;;5014882;28;20098;-84
2021/03/13 02:34:12;;;;;;;17.33;4.53;;;0.70;99.90;;;;;;5015305;28;20030;-84
2021/03/13 02:36:39;;;;;;;12.95;4.47;;;0.60;99.90;;;;;;5014858;28;20033;-83
2021/03/13 02:39:10;;;;;;;8.20;4.78;;;0.60;99.90;;;;;;5014649;28;20548;-83
2021/03/13 02:41:43;;;;;;;11.40;5.05;;;0.60;99.90;;;;;;5014735;28;20523;-84
2021/03/13 02:44:12;;;;;;;14.82;6.60;;;0.50;99.90;;;;;;5014533;28;20022;-83
2021/03/13 02:46:48;;;;;;;31.48;7.03;;;0.50;99.90;;;;;;5014332;28;20033;-85
2021/03/13 02:49:15;;;;;;;9.80;5.30;;;0.60;99.90;;;;;;5014659;28;20080;-85
2021/03/13 02:51:42;;;;;;;17.50;6.07;;;0.60;99.90;;;;;;5015309;28;20053;-84
2021/03/13 02:54:10;;;;;;;46.45;7.90;;;0.60;99.90;;;;;;5018343;28;20029;-84
2021/03/13 02:56:39;;;;;;;22.70;6.85;;;0.60;99.90;;;;;;5019346;28;20030;-85
2021/03/13 02:59:05;;;;;;;131.15;8.70;;;0.60;99.90;;;;;;5018607;28;20026;-85
2021/03/13 03:01:33;;;;;;;156.55;10.30;;;0.70;99.90;;;;;;5018146;28;20022;-84
2021/03/13 03:04:00;;;;;;;153.38;9.10;;;0.60;99.90;;;;;;5018445;28;20465;-84
2021/03/13 03:06:27;;;;;;;203.95;9.93;;;0.60;99.90;;;;;;5018448;28;20036;-84
2021/03/13 03:08:54;;;;;;;300.15;9.82;;;0.60;99.90;;;;;;5018130;28;20022;-84
2021/03/13 03:11:24;;;;;;;169.57;8.20;;;0.60;99.90;;;;;;5017969;28;20030;-84
2021/03/13 03:13:52;;;;;;;141.30;8.50;;;0.60;99.90;;;;;;5017876;28;20018;-84
2021/03/13 03:16:20;;;;;;;104.13;7.18;;;0.60;99.90;;;;;;5017938;28;20021;-84
2021/03/13 03:18:47;;;;;;;165.95;8.32;;;0.60;99.90;;;;;;5018698;28;20034;-83
2021/03/13 03:21:14;;;;;;;125.18;7.90;;;0.60;99.90;;;;;;5018019;28;20022;-83
2021/03/13 03:23:41;;;;;;;160.32;7.85;;;0.50;99.90;;;;;;5018472;28;20117;-83
2021/03/13 03:26:07;;;;;;;104.68;6.95;;;0.60;99.90;;;;;;5018019;28;20093;-84
2021/03/13 03:28:32;;;;;;;89.50;6.50;;;0.50;99.90;;;;;;5018621;28;20050;-84
2021/03/13 03:30:59;;;;;;;117.22;7.65;;;0.90;99.90;;;;;;5018066;28;20122;-86
2021/03/13 03:33:25;;;;;;;135.27;7.72;;;0.40;99.90;;;;;;5018328;28;20057;-83
2021/03/13 03:35:51;;;;;;;82.47;6.40;;;0.40;99.90;;;;;;5018740;28;20471;-83
2021/03/13 03:38:17;;;;;;;125.70;6.80;;;0.40;99.90;;;;;;5017932;28;20042;-83
2021/03/13 03:40:45;;;;;;;74.63;6.72;;;0.40;99.90;;;;;;5018573;28;20119;-84
2021/03/13 03:43:19;;;;;;;80.82;10.10;;;0.30;99.90;;;;;;5019168;28;20037;-83
2021/03/13 03:45:50;;;;;;;55.42;6.05;;;0.30;99.90;;;;;;5018861;28;20022;-84
2021/03/13 03:48:17;;;;;;;69.60;5.43;;;0.30;99.90;;;;;;5018927;28;20026;-83
2021/03/13 03:50:43;;;;;;;74.50;5.80;;;0.20;99.90;;;;;;5018595;28;20042;-82
2021/03/13 03:53:23;;;;;;;58.95;5.95;;;0.20;99.90;;;;;;5019213;28;20022;-83
2021/03/13 03:55:52;;;;;;;68.10;5.82;;;0.30;99.90;;;;;;5018540;28;20508;-84
2021/03/13 03:58:26;;;;;;;53.92;5.80;;;0.20;99.90;;;;;;5018391;28;20381;-84
2021/03/13 04:00:53;;;;;;;31.08;5.00;;;0.20;99.90;;;;;;5018537;28;20101;-83
2021/03/13 04:03:22;;;;;;;42.88;5.22;;;0.20;99.90;;;;;;5017742;28;20026;-83
2021/03/13 04:05:48;;;;;;;73.05;6.53;;;0.20;99.90;;;;;;5018634;28;20050;-86
2021/03/13 04:08:17;;;;;;;62.85;6.00;;;0.20;99.90;;;;;;5018569;28;20052;-84
2021/03/13 04:10:48;;;;;;;47.50;6.18;;;0.20;99.90;;;;;;5018529;28;20034;-84
2021/03/13 04:13:18;;;;;;;70.05;7.55;;;0.20;99.90;;;;;;5018300;28;20030;-82
2021/03/13 04:15:46;;;;;;;88.78;6.07;;;0.30;99.90;;;;;;5018641;28;20030;-84
2021/03/13 04:18:12;;;;;;;50.05;7.22;;;0.20;99.90;;;;;;5018012;28;20065;-84
2021/03/13 04:20:40;;;;;;;65.68;7.10;;;0.30;99.90;;;;;;5017666;28;20109;-82
2021/03/13 04:23:07;;;;;;;27.15;9.07;;;0.30;99.90;;;;;;5017113;28;20022;-84
2021/03/13 04:25:35;;;;;;;31.90;7.45;;;0.30;99.90;;;;;;5017334;28;20052;-84
2021/03/13 04:28:01;;;;;;;72.75;7.30;;;0.40;99.90;;;;;;5017425;28;20103;-84
2021/03/13 04:30:27;;;;;;;45.65;7.28;;;0.30;99.90;;;;;;5018097;28;20022;-83
2021/03/13 04:32:55;;;;;;;81.50;8.43;;;0.30;99.90;;;;;;5017642;28;20025;-85
2021/03/13 04:35:23;;;;;;;64.22;5.90;;;0.40;99.90;;;;;;5017212;28;20025;-83
2021/03/13 04:37:49;;;;;;;48.70;6.07;;;0.40;99.90;;;;;;5016996;28;20101;-83
2021/03/13 04:40:16;;;;;;;91.00;5.78;;;0.40;99.90;;;;;;5016382;28;20076;-82
2021/03/13 04:42:44;;;;;;;40.85;5.53;;;0.40;99.90;;;;;;5016613;28;20033;-84
2021/03/13 04:45:10;;;;;;;42.40;5.07;;;0.30;99.90;;;;;;5017218;28;20022;-82
2021/03/13 04:47:40;;;;;;;56.55;5.47;;;0.40;99.90;;;;;;5017625;28;20030;-83
2021/03/13 04:50:06;;;;;;;49.00;5.18;;;0.40;99.90;;;;;;5017324;28;20022;-83
2021/03/13 04:52:32;;;;;;;56.22;5.47;;;0.30;99.90;;;;;;5017740;28;20026;-85
2021/03/13 04:54:57;;;;;;;43.10;5.10;;;0.30;99.90;;;;;;5017486;28;20421;-84
2021/03/13 04:57:23;;;;;;;43.10;6.78;;;0.30;99.90;;;;;;5017036;28;20034;-81
2021/03/13 04:59:50;;;;;;;49.80;5.78;;;0.30;99.90;;;;;;5018315;28;20090;-83
2021/03/13 05:02:16;;;;;;;52.47;6.35;;;0.20;99.90;;;;;;5016900;28;20037;-84
2021/03/13 05:04:41;;;;;;;33.88;6.30;;;0.20;99.90;;;;;;5016930;28;20120;-85
2021/03/13 05:07:07;;;;;;;59.55;6.55;;;0.30;99.90;;;;;;5017604;28;20037;-82
2021/03/13 05:09:33;;;;;;;51.55;6.75;;;0.20;99.90;;;;;;5017483;28;20072;-84
2021/03/13 05:12:00;;;;;;;104.75;6.75;;;0.30;99.90;;;;;;5016909;28;20033;-85
2021/03/13 05:14:26;;;;;;;60.92;6.15;;;0.30;99.90;;;;;;5017568;28;20026;-83
2021/03/13 05:16:52;;;;;;;40.40;6.57;;;0.30;99.90;;;;;;5016698;28;20046;-82
2021/03/13 05:19:17;;;;;;;73.80;6.90;;;0.20;99.90;;;;;;5015943;28;20465;-84
2021/03/13 05:21:43;;;;;;;44.15;5.78;;;0.20;99.90;;;;;;5016347;28;20028;-83
2021/03/13 05:24:09;;;;;;;74.40;7.13;;;0.20;99.90;;;;;;5016576;28;20094;-85
2021/03/13 05:26:35;;;;;;;52.88;6.95;;;0.30;99.90;;;;;;5015987;28;20026;-84
2021/03/13 05:29:00;;;;;;;37.42;6.65;;;0.30;99.90;;;;;;5016060;28;20113;-83
2021/03/13 05:31:26;;;;;;;55.47;6.10;;;0.30;99.90;;;;;;5016378;28;20056;-83
2021/03/13 05:33:51;;;;;;;37.95;5.93;;;0.30;99.90;;;;;;5018853;28;20491;-82
2021/03/13 05:36:17;;;;;;;63.53;5.20;;;0.30;99.90;;;;;;5016598;28;20030;-84
2021/03/13 05:38:43;;;;;;;48.58;4.72;;;2.10;99.90;;;;;;5021311;28;20065;-83
2021/03/13 05:41:10;;;;;;;32.28;4.80;;;1.70;99.90;;;;;;5016604;28;20461;-84
2021/03/13 05:43:38;;;;;;;54.65;5.05;;;1.50;99.90;;;;;;5019889;28;20233;-83
2021/03/13 05:46:06;;;;;;;54.58;5.57;;;1.20;99.90;;;;;;5016048;28;20018;-84
2021/03/13 05:48:34;;;;;;;44.15;5.88;;;1.00;99.90;;;;;;5015693;28;20030;-83
2021/03/13 05:51:01;;;;;;;31.30;6.50;;;0.90;99.90;;;;;;5015480;28;20361;-83
2021/03/13 05:53:27;;;;;;;36.70;5.70;;;0.80;99.90;;;;;;5015570;28;20121;-85
2021/03/13 05:55:54;;;;;;;26.55;8.93;;;0.70;99.90;;;;;;5015507;28;20053;-83
2021/03/13 05:58:21;;;;;;;70.47;7.22;;;0.60;99.90;;;;;;5015296;28;20037;-84
2021/03/13 06:00:48;;;;;;;60.80;5.63;;;0.50;99.90;;;;;;5015916;28;20053;-83
2021/03/13 06:03:14;;;;;;;44.35;5.78;;;0.40;99.90;;;;;;5016824;28;20061;-86
2021/03/13 06:05:44;;;;;;;53.17;6.00;;;0.30;99.90;;;;;;5016603;28;20469;-83
2021/03/13 06:08:10;;;;;;;48.58;5.63;;;1.30;99.90;;;;;;5016095;28;20033;-84
2021/03/13 06:10:36;;;;;;;60.95;6.07;;;0.20;99.90;;;;;;5015986;28;20036;-84
2021/03/13 06:13:02;;;;;;;49.30;6.07;;;0.30;99.90;;;;;;5015989;28;20022;-83
2021/03/13 06:15:29;;;;;;;49.08;6.30;;;0.30;99.90;;;;;;5015941;28;20076;-85
2021/03/13 06:17:59;;;;;;;59.85;7.57;;;0.30;99.90;;;;;;5015614;28;20120;-83
2021/03/13 06:20:33;;;;;;;69.38;6.32;;;0.30;99.90;;;;;;5015723;28;20030;-84
2021/03/13 06:23:21;;;;;;;60.95;6.95;;;0.40;99.90;;;;;;5016342;28;20088;-84
2021/03/13 06:25:48;;;;;;;50.95;6.03;;;0.40;99.90;;;;;;5015593;28;20092;-85
2021/03/13 06:28:19;;;;;;;60.33;6.53;;;0.40;99.90;;;;;;5019116;28;20026;-85
2021/03/13 06:30:48;;;;;;;87.95;9.02;;;0.40;99.90;;;;;;5019986;28;20068;-82
2021/03/13 06:33:23;;;;;;;65.10;7.55;;;0.50;99.90;;;;;;5019793;28;20056;-83
2021/03/13 06:35:50;;;;;;;33.25;7.30;;;0.60;99.90;;;;;;5019335;28;20502;-85
2021/03/13 06:38:22;;;;;;;53.00;6.93;;;0.70;99.90;;;;;;5018756;28;20460;-82
2021/03/13 06:40:49;;;;;;;96.90;7.18;;;0.60;99.90;;;;;;5018541;28;20065;-84
2021/03/13 06:43:23;;;;;;;57.83;7.32;;;0.80;99.90;;;;;;5018492;28;20373;-83
2021/03/13 06:45:55;;;;;;;30.02;6.95;;;0.70;99.90;;;;;;5018259;28;20026;-83
2021/03/13 06:48:44;;;;;;;84.35;7.60;;;0.80;99.90;;;;;;5019015;28;20097;-83
2021/03/13 06:51:19;;;;;;;131.48;18.60;;;0.90;99.90;;;;;;5018636;28;20030;-83
2021/03/13 06:53:49;;;;;;;82.35;9.35;;;1.00;99.90;;;;;;5019091;28;20026;-83
2021/03/13 06:56:16;;;;;;;74.72;10.95;;;1.10;99.90;;;;;;5019233;28;20093;-82
2021/03/13 06:58:41;;;;;;;116.45;11.63;;;1.20;99.90;;;;;;5019341;28;20064;-84
2021/03/13 07:01:09;;;;;;;95.88;8.20;;;1.20;99.90;;;;;;5018659;28;20030;-83
2021/03/13 07:03:49;;;;;;;67.65;7.22;;;1.10;99.90;;;;;;5018564;28;20034;-84
2021/03/13 07:06:17;;;;;;;54.35;7.90;;;1.10;99.90;;;;;;5018992;28;20030;-84
2021/03/13 07:08:47;;;;;;;67.53;8.88;;;1.20;99.90;;;;;;5019343;28;20354;-84
2021/03/13 07:11:17;;;;;;;74.03;10.25;;;1.10;99.90;;;;;;5018942;28;20029;-83
2021/03/13 07:13:49;;;;;;;174.35;11.85;;;1.20;99.90;;;;;;5018316;28;20073;-83
2021/03/13 07:16:27;;;;;;;175.73;11.15;;;1.40;99.90;;;;;;5018213;28;20034;-83
2021/03/13 07:19:00;;;;;;;55.15;6.18;;;1.50;99.90;;;;;;5019554;28;20088;-84
2021/03/13 07:21:26;;;;;;;57.63;6.00;;;1.50;99.90;;;;;;5020106;28;20503;-85
2021/03/13 07:24:13;;;;;;;44.08;6.28;;;1.50;99.90;;;;;;5017253;28;20025;-83
2021/03/13 07:26:46;;;;;;;67.53;7.00;;;1.40;99.90;;;;;;5017160;28;20022;-83
2021/03/13 07:29:14;;;;;;;58.15;6.85;;;1.50;99.90;;;;;;5017958;28;20068;-84
2021/03/13 07:31:45;;;;;;;33.33;5.78;;;1.60;99.90;;;;;;5018253;28;20057;-83
2021/03/13 07:34:19;;;;;;;57.30;6.57;;;1.70;99.90;;;;;;5016460;28;20112;-84
2021/03/13 07:36:51;;;;;;;27.13;6.68;;;1.80;99.90;;;;;;5016494;28;20049;-83
2021/03/13 07:39:19;;;;;;;14.52;6.93;;;1.90;99.90;;;;;;5015089;28;20026;-84
2021/03/13 07:42:09;;;;;;;14.73;7.28;;;2.00;99.90;;;;;;5016899;28;20030;-83
2021/03/13 07:44:36;;;;;;;11.93;8.13;;;2.10;99.90;;;;;;5016744;28;20026;-85
2021/03/13 07:47:02;;;;;;;15.82;9.68;;;2.20;99.90;;;;;;5016381;28;20021;-83
2021/03/13 07:49:30;;;;;;;27.85;13.38;;;2.40;99.90;;;;;;5015766;28;20037;-83
2021/03/13 07:51:59;;;;;;;11.27;8.07;;;2.60;99.90;;;;;;5015532;28;20022;-79
2021/03/13 07:54:27;;;;;;;20.10;8.25;;;3.80;99.90;;;;;;5016709;28;20121;-82
2021/03/13 07:56:53;;;;;;;8.50;6.82;;;5.20;99.90;;;;;;5015747;28;20034;-81
2021/03/13 07:59:53;;;;;;;8.98;6.53;;;5.90;97.70;;;;;;5016347;28;20112;-81
2021/03/13 08:02:30;;;;;;;10.52;8.40;;;6.40;96.20;;;;;;5017455;28;20032;-86
2021/03/13 08:05:02;;;;;;;7.82;6.72;;;6.10;96.20;;;;;;5016418;28;20032;-82
2021/03/13 08:07:29;;;;;;;10.32;8.50;;;5.60;97.60;;;;;;5015653;28;20029;-83
2021/03/13 08:09:55;;;;;;;13.75;8.95;;;5.10;99.60;;;;;;5016326;28;20030;-83
2021/03/13 08:12:41;;;;;;;9.57;7.85;;;4.80;99.90;;;;;;5016043;28;20033;-79
2021/03/13 08:15:12;;;;;;;12.90;9.07;;;4.70;99.90;;;;;;5014414;28;20366;-79
2021/03/13 08:17:39;;;;;;;12.18;9.45;;;4.70;99.90;;;;;;5014535;28;20287;-79
2021/03/13 08:20:07;;;;;;;10.98;8.98;;;4.50;99.90;;;;;;5015457;28;20030;-85
2021/03/13 08:22:33;;;;;;;15.95;13.90;;;4.60;99.90;;;;;;5016929;28;20026;-85
2021/03/13 08:24:58;;;;;;;12.27;10.35;;;4.50;99.90;;;;;;5016879;28;20025;-85
2021/03/13 08:27:33;;;;;;;16.10;13.02;;;4.70;99.90;;;;;;5017328;28;20026;-80
2021/03/13 08:29:59;;;;;;;14.90;12.32;;;4.50;99.90;;;;;;5015757;28;20029;-79
2021/03/13 08:32:57;;;;;;;18.08;14.40;;;4.60;99.90;;;;;;5014772;28;20038;-80
2021/03/13 08:35:37;;;;;;;18.95;15.10;;;4.70;99.90;;;;;;5015012;28;20072;-82
2021/03/13 08:38:04;;;;;;;15.40;12.70;;;4.90;99.90;;;;;;5015171;28;20030;-80
2021/03/13 08:40:30;;;;;;;16.23;13.88;;;5.10;99.90;;;;;;5015277;28;20113;-81
2021/03/13 08:42:56;;;;;;;14.10;12.40;;;5.20;99.90;;;;;;5013954;28;20030;-80
2021/03/13 08:45:23;;;;;;;15.48;12.82;;;5.30;99.90;;;;;;5013924;28;20036;-85
2021/03/13 08:47:54;;;;;;;21.10;17.15;;;5.50;99.90;;;;;;5013794;28;20493;-81
2021/03/13 08:50:51;;;;;;;17.30;13.95;;;5.60;99.90;;;;;;5014208;28;20110;-80
2021/03/13 08:53:37;;;;;;;16.88;13.00;;;5.80;99.90;;;;;;5014698;28;20116;-81
2021/03/13 08:56:04;;;;;;;19.65;15.75;;;6.00;99.90;;;;;;5016910;28;20062;-85
2021/03/13 08:58:43;;;;;;;31.20;24.70;;;6.00;99.90;;;;;;5017601;28;20034;-85
2021/03/13 09:01:21;;;;;;;18.13;13.10;;;6.10;99.90;;;;;;5016321;28;20076;-85
2021/03/13 09:03:51;;;;;;;18.50;13.77;;;6.20;98.70;;;;;;5017423;28;20022;-85
2021/03/13 09:06:19;;;;;;;18.20;13.57;;;6.30;99.00;;;;;;5017200;28;20018;-84
2021/03/13 09:08:47;;;;;;;18.88;14.93;;;6.40;99.90;;;;;;5024027;28;20033;-84
2021/03/13 09:11:28;;;;;;;25.05;18.08;;;6.60;99.40;;;;;;5019658;28;20083;-85
2021/03/13 09:13:59;;;;;;;20.55;15.63;;;6.70;99.90;;;;;;5007477;28;20046;-84
2021/03/13 09:16:48;;;;;;;18.67;15.45;;;6.80;99.10;;;;;;5011728;28;20118;-85
2021/03/13 09:19:14;;;;;;;17.75;14.15;;;6.90;99.10;;;;;;5026266;28;20040;-85
2021/03/13 09:22:00;;;;;;;16.98;14.27;;;6.90;98.80;;;;;;5025043;28;20029;-85
2021/03/13 09:24:28;;;;;;;17.25;13.82;;;7.10;98.60;;;;;;5027363;28;20420;-85
2021/03/13 09:27:15;;;;;;;17.63;14.43;;;7.30;99.00;;;;;;5026140;28;20068;-86
2021/03/13 09:29:41;;;;;;;13.82;11.63;;;7.50;98.10;;;;;;5005310;28;20057;-85
2021/03/13 09:32:11;;;;;;;14.60;11.65;;;7.60;97.90;;;;;;5019841;28;20061;-85
2021/03/13 09:34:39;;;;;;;13.65;10.55;;;7.60;97.80;;;;;;5020491;28;20057;-86
2021/03/13 09:37:19;;;;;;;14.23;12.30;;;7.70;96.80;;;;;;5023463;28;20041;-85
2021/03/13 09:39:52;;;;;;;13.77;12.05;;;7.80;98.60;;;;;;5026620;28;20036;-85
2021/03/13 09:42:25;;;;;;;12.82;10.82;;;7.80;98.70;;;;;;5028169;28;20160;-85
2021/03/13 09:45:16;;;;;;;15.38;12.98;;;7.70;98.30;;;;;;5011808;28;20168;-85
2021/03/13 09:47:55;;;;;;;13.48;11.40;;;7.90;98.50;;;;;;5026005;28;20098;-85
2021/03/13 09:50:38;;;;;;;13.35;11.30;;;7.90;97.40;;;;;;5028414;28;20026;-85
2021/03/13 09:53:06;;;;;;;11.35;9.65;;;8.20;97.70;;;;;;5010733;28;20098;-86
2021/03/13 09:55:34;;;;;;;12.13;9.40;;;8.40;97.60;;;;;;5009940;28;20057;-85
2021/03/13 09:58:02;;;;;;;8.40;7.45;;;8.50;96.60;;;;;;5010659;28;20046;-85
2021/03/13 10:00:40;;;;;;;8.50;6.93;;;8.70;93.90;;;;;;5012615;28;20029;-84
2021/03/13 10:03:17;;;;;;;11.00;8.50;;;8.70;93.70;;;;;;5021100;28;20049;-85
2021/03/13 10:05:43;;;;;;;9.23;7.60;;;8.70;95.60;;;;;;5014891;28;20117;-86
2021/03/13 10:08:13;;;;;;;7.15;6.20;;;8.80;94.80;;;;;;5014805;28;20030;-85
2021/03/13 10:10:42;;;;;;;11.45;6.50;;;8.90;94.80;;;;;;5015622;28;20443;-86
2021/03/13 10:13:08;;;;;;;53.75;25.75;;;9.00;93.60;;;;;;5015179;28;20030;-85
2021/03/13 10:15:36;;;;;;;32.03;18.02;;;9.10;93.10;;;;;;5015274;28;20022;-85
2021/03/13 10:18:15;;;;;;;9.73;6.45;;;9.30;94.10;;;;;;5014894;28;20048;-85
2021/03/13 10:20:50;;;;;;;43.42;25.40;;;9.50;92.70;;;;;;5016438;28;20022;-86
2021/03/13 10:23:16;;;;;;;29.10;15.75;;;9.50;92.90;;;;;;5014318;28;20065;-85
2021/03/13 10:25:53;;;;;;;10.15;8.57;;;9.60;92.80;;;;;;5013867;28;20038;-85
2021/03/13 10:28:18;;;;;;;8.57;7.45;;;9.70;92.00;;;;;;5018047;28;20069;-85
2021/03/13 10:30:46;;;;;;;10.85;8.20;;;9.90;93.10;;;;;;5016290;28;20021;-86
2021/03/13 10:33:13;;;;;;;12.70;11.40;;;10.00;91.50;;;;;;5016519;28;20052;-86
2021/03/13 10:35:39;;;;;;;9.70;6.32;;;10.00;92.30;;;;;;5015588;28;20042;-86
2021/03/13 10:38:08;;;;;;;11.23;6.47;;;10.00;91.30;;;;;;5014758;28;20038;-86
2021/03/13 10:40:38;;;;;;;6.90;5.78;;;10.20;91.20;;;;;;5016453;28;20030;-86
2021/03/13 10:43:19;;;;;;;14.95;8.38;;;10.30;91.30;;;;;;5018786;28;20512;-84
2021/03/13 10:46:01;;;;;;;4.72;4.18;;;10.50;90.10;;;;;;5015705;28;20034;-86
2021/03/13 10:48:44;;;;;;;6.70;4.70;;;10.60;88.10;;;;;;5014702;28;20037;-86
2021/03/13 10:51:19;;;;;;;6.32;5.00;;;10.70;88.70;;;;;;4999468;28;20452;-86
2021/03/13 10:53:45;;;;;;;3.47;3.15;;;10.70;87.40;;;;;;5015581;28;20088;-85
2021/03/13 10:56:12;;;;;;;7.15;4.90;;;10.70;85.10;;;;;;5012049;28;20049;-79
2021/03/13 10:58:49;;;;;;;7.30;4.10;;;10.60;88.80;;;;;;5010728;28;20489;-75
2021/03/13 11:01:15;;;;;;;4.43;4.03;;;10.90;86.00;;;;;;5011892;28;20435;-74
2021/03/13 11:03:43;;;;;;;10.15;7.90;;;11.00;86.00;;;;;;5011172;28;20028;-79
2021/03/13 11:06:10;;;;;;;5.93;4.35;;;11.10;84.50;;;;;;5010934;28;20084;-78
2021/03/13 11:08:35;;;;;;;8.50;7.60;;;11.20;84.00;;;;;;5012137;28;20018;-79
2021/03/13 11:11:01;;;;;;;9.70;8.77;;;11.30;84.90;;;;;;5010930;28;20036;-78
2021/03/13 11:13:27;;;;;;;3.78;3.38;;;11.40;86.10;;;;;;5012876;28;20025;-81
2021/03/13 11:15:53;;;;;;;3.47;2.97;;;11.50;83.30;;;;;;5014449;28;20404;-80
2021/03/13 11:18:19;;;;;;;3.45;3.15;;;11.60;83.80;;;;;;5014815;28;20037;-81
2021/03/13 11:20:46;;;;;;;10.35;4.70;;;11.60;83.70;;;;;;5015662;28;20037;-81
2021/03/13 11:23:12;;;;;;;4.93;4.38;;;11.80;82.40;;;;;;5014378;28;20030;-79
2021/03/13 11:25:38;;;;;;;3.90;3.50;;;11.70;81.90;;;;;;5014357;28;20024;-78
2021/03/13 11:28:04;;;;;;;7.63;4.18;;;11.90;83.00;;;;;;5014257;28;20516;-83
2021/03/13 11:30:30;;;;;;;5.15;3.15;;;11.90;81.50;;;;;;5014586;28;20022;-80
2021/03/13 11:32:55;;;;;;;3.50;3.20;;;12.00;81.90;;;;;;5014327;28;20051;-79
2021/03/13 11:35:23;;;;;;;3.08;2.78;;;12.10;79.80;;;;;;5014214;28;20028;-80
2021/03/13 11:37:49;;;;;;;3.53;3.20;;;12.10;78.80;;;;;;5015086;28;20041;-78
2021/03/13 11:40:16;;;;;;;3.47;3.10;;;12.10;79.70;;;;;;5013940;28;20117;-79
2021/03/13 11:42:43;;;;;;;13.10;11.48;;;12.20;79.30;;;;;;5015289;28;20528;-79
2021/03/13 11:45:10;;;;;;;9.82;5.22;;;12.10;78.40;;;;;;5014030;28;20017;-79
2021/03/13 11:47:37;;;;;;;8.93;5.85;;;12.10;77.70;;;;;;5013875;28;20454;-79
2021/03/13 11:50:06;;;;;;;7.55;5.32;;;12.10;78.20;;;;;;5013914;28;20088;-78
2021/03/13 11:52:33;;;;;;;9.05;5.95;;;12.20;78.70;;;;;;5015031;28;20030;-79
2021/03/13 11:54:58;;;;;;;6.90;4.57;;;12.30;76.00;;;;;;5013462;28;20042;-78
2021/03/13 11:57:24;;;;;;;5.93;3.83;;;12.40;76.40;;;;;;5014817;28;20041;-78
2021/03/13 11:59:51;;;;;;;16.15;9.32;;;12.40;75.70;;;;;;5014825;28;20033;-82
2021/03/13 12:02:17;;;;;;;8.57;6.00;;;12.50;77.50;;;;;;5013820;28;20037;-80
2021/03/13 12:04:44;;;;;;;7.82;5.20;;;12.60;73.40;;;;;;5013472;28;20022;-80
2021/03/13 12:07:10;;;;;;;9.13;5.70;;;12.60;72.70;;;;;;5014611;28;20030;-80
2021/03/13 12:09:37;;;;;;;4.18;2.28;;;12.70;74.50;;;;;;5013473;28;20033;-79
2021/03/13 12:12:06;;;;;;;5.18;2.10;;;12.90;75.40;;;;;;5013786;28;20026;-84
2021/03/13 12:14:32;;;;;;;4.75;2.13;;;12.80;71.00;;;;;;5013720;28;20036;-79
2021/03/13 12:16:58;;;;;;;3.40;2.22;;;12.70;71.70;;;;;;5014677;28;20029;-79
2021/03/13 12:19:24;;;;;;;2.13;1.85;;;12.50;72.80;;;;;;5013361;28;20089;-78
2021/03/13 12:21:50;;;;;;;4.43;2.30;;;12.40;73.00;;;;;;5013373;28;20036;-79
2021/03/13 12:24:16;;;;;;;2.70;2.05;;;12.20;71.50;;;;;;5012623;28;20420;-79
2021/03/13 12:26:42;;;;;;;10.82;6.35;;;12.20;72.30;;;;;;5012859;28;20447;-78
2021/03/13 12:29:08;;;;;;;18.77;11.10;;;12.30;73.20;;;;;;5012984;28;20076;-79
2021/03/13 12:31:34;;;;;;;47.75;26.17;;;12.30;72.40;;;;;;5012770;28;20461;-78
2021/03/13 12:34:00;;;;;;;26.85;15.60;;;12.30;72.90;;;;;;5013004;28;20034;-80
2021/03/13 12:36:25;;;;;;;22.73;14.20;;;12.40;71.70;;;;;;5012845;28;20470;-79
2021/03/13 12:38:51;;;;;;;16.80;10.68;;;12.40;73.60;;;;;;5012923;28;20030;-79
2021/03/13 12:41:17;;;;;;;19.58;12.35;;;12.60;73.70;;;;;;5012831;28;20462;-80
2021/03/13 12:43:43;;;;;;;4.15;2.53;;;12.80;71.00;;;;;;5012448;28;20029;-78
2021/03/13 12:46:15;;;;;;;9.82;2.42;;;12.80;70.00;;;;;;5014200;28;20033;-79
2021/03/13 12:48:44;;;;;;;3.08;2.50;;;12.90;70.10;;;;;;5012554;28;20022;-80
2021/03/13 12:51:10;;;;;;;4.05;2.78;;;13.10;69.80;;;;;;5014061;28;20026;-79
2021/03/13 12:53:36;;;;;;;9.10;2.70;;;13.30;70.00;;;;;;5013553;28;20121;-82
2021/03/13 12:56:03;;;;;;;3.20;2.28;;;13.60;69.50;;;;;;5014145;28;20556;-80